Main page
METAR-TAF:

METAR-TAF

Airports :

Amman Civil Airport

Amman, Jordan

latitude: 31-59N, longitude: 035-59E, elevation: 767 m

Current weather observation

The report was made 55 minutes ago, at 18:00 UTC
Calm wind
Temperature 9°C
Humidity 71%
Pressure 1022 hPa
Visibility: 6000 m

METAR: OJAM 271800Z 00000KT 6000 NSC 09/04 Q1022 NOSIG

Time: 20:55 (18:55 UTC)

Forecast

The report was made 2 hours and 5 minutes ago, at 16:50 UTC
Forecast valid from 27 at 18 UTC to 28 at 24 UTC
Wind 1 kt from variable directions
Visibility: 6000 m
Probability 30%
from 28 at 02 UTC to 28 at 06 UTC
Visibility: 3000 m
Becoming
from 28 at 06 UTC to 28 at 08 UTC
Wind 8 kt from the Southeast
Visibility: 5000 m
haze
Becoming
from 28 at 13 UTC to 28 at 15 UTC
Wind 12 kt from the West
Scattered clouds at a height of 3000 ft

TAF: OJAM 271650Z 2718/2824 VRB01KT 6000 NSC PROB30 2802/2806 3000 BECMG 2806/2808 14008KT 5000 HZ NSC BECMG 2813/2815 28012KT SCT030

Weather observations and forecasts of more than 4000 airports (METAR and TAF reports).

The available stations are represented by yellow and red dots on the map.

Hover mouse over dot to see the name of the station.

Then click to see weather observations and forecasts.

To change the map : click on the green buttons with a black cross to zoom in, on the green button with a dash to zoom out, or on the green arrows for adjacent maps.


METAR-TAF: